sensor_id;sensor_type;location;lat;lon;timestamp;pressure;altitude;pressure_sealevel;temperature;humidity
19553;BME280;9420;50.876;7.012;2023-05-12T00:00:22;100930.75;;;27.97;77.40
19553;BME280;9420;50.876;7.012;2023-05-12T00:02:49;100932.53;;;28.69;75.22
19553;BME280;9420;50.876;7.012;2023-05-12T00:05:16;100935.13;;;27.71;78.47
19553;BME280;9420;50.876;7.012;2023-05-12T00:07:43;100937.03;;;28.15;77.77
19553;BME280;9420;50.876;7.012;2023-05-12T00:10:10;100930.13;;;28.03;76.59
19553;BME280;9420;50.876;7.012;2023-05-12T00:12:37;100930.56;;;28.44;76.68
19553;BME280;9420;50.876;7.012;2023-05-12T00:15:08;100930.00;;;28.93;73.99
19553;BME280;9420;50.876;7.012;2023-05-12T00:17:35;100930.03;;;28.58;75.28
19553;BME280;9420;50.876;7.012;2023-05-12T00:20:03;100929.38;;;28.99;73.85
19553;BME280;9420;50.876;7.012;2023-05-12T00:22:31;100934.31;;;28.78;73.53
19553;BME280;9420;50.876;7.012;2023-05-12T00:24:58;100936.03;;;28.16;73.91
19553;BME280;9420;50.876;7.012;2023-05-12T00:27:25;100933.66;;;29.27;71.35
19553;BME280;9420;50.876;7.012;2023-05-12T00:29:51;100931.41;;;27.72;76.63
19553;BME280;9420;50.876;7.012;2023-05-12T00:32:20;100928.53;;;27.83;76.91
19553;BME280;9420;50.876;7.012;2023-05-12T00:34:48;100929.13;;;27.77;75.84
19553;BME280;9420;50.876;7.012;2023-05-12T00:37:17;100925.00;;;29.06;73.21
19553;BME280;9420;50.876;7.012;2023-05-12T00:39:44;100937.50;;;30.26;69.34
19553;BME280;9420;50.876;7.012;2023-05-12T00:42:12;100930.47;;;29.99;68.47
19553;BME280;9420;50.876;7.012;2023-05-12T00:44:39;100929.13;;;29.61;69.23
19553;BME280;9420;50.876;7.012;2023-05-12T00:47:06;100928.81;;;29.72;67.64
19553;BME280;9420;50.876;7.012;2023-05-12T00:49:36;100925.03;;;28.63;72.46
19553;BME280;9420;50.876;7.012;2023-05-12T00:52:04;100921.16;;;28.91;72.27
19553;BME280;9420;50.876;7.012;2023-05-12T00:54:31;100918.72;;;29.23;70.82
19553;BME280;9420;50.876;7.012;2023-05-12T00:56:59;100910.97;;;28.14;72.98
19553;BME280;9420;50.876;7.012;2023-05-12T00:59:26;100913.38;;;30.15;70.14
19553;BME280;9420;50.876;7.012;2023-05-12T01:01:54;100912.44;;;31.04;65.81
19553;BME280;9420;50.876;7.012;2023-05-12T01:04:22;100910.78;;;27.71;75.02
19553;BME280;9420;50.876;7.012;2023-05-12T01:06:55;100905.72;;;27.03;80.52
19553;BME280;9420;50.876;7.012;2023-05-12T01:09:24;100897.28;;;27.34;80.42
19553;BME280;9420;50.876;7.012;2023-05-12T01:11:51;100901.38;;;26.83;81.52
19553;BME280;9420;50.876;7.012;2023-05-12T01:14:18;100891.59;;;26.72;82.05
19553;BME280;9420;50.876;7.012;2023-05-12T01:16:50;100884.53;;;27.08;82.44
19553;BME280;9420;50.876;7.012;2023-05-12T01:19:33;100881.41;;;28.39;77.20
19553;BME280;9420;50.876;7.012;2023-05-12T01:22:07;100887.91;;;28.10;77.37
19553;BME280;9420;50.876;7.012;2023-05-12T01:24:44;100877.38;;;28.78;74.84
19553;BME280;9420;50.876;7.012;2023-05-12T01:27:14;100886.13;;;27.74;77.50
19553;BME280;9420;50.876;7.012;2023-05-12T01:29:44;100880.78;;;28.45;75.87
19553;BME280;9420;50.876;7.012;2023-05-12T01:32:12;100873.16;;;27.95;76.07
19553;BME280;9420;50.876;7.012;2023-05-12T01:34:41;100880.19;;;28.51;77.45
19553;BME280;9420;50.876;7.012;2023-05-12T01:37:09;100875.56;;;28.61;73.69
19553;BME280;9420;50.876;7.012;2023-05-12T01:39:37;100874.09;;;28.92;74.14
19553;BME280;9420;50.876;7.012;2023-05-12T01:42:05;100874.53;;;27.82;77.73
19553;BME280;9420;50.876;7.012;2023-05-12T01:44:33;100865.78;;;29.87;69.49
19553;BME280;9420;50.876;7.012;2023-05-12T01:47:00;100873.53;;;28.63;74.43
19553;BME280;9420;50.876;7.012;2023-05-12T01:49:27;100870.91;;;28.00;75.64
19553;BME280;9420;50.876;7.012;2023-05-12T01:51:54;100874.31;;;27.93;78.07
19553;BME280;9420;50.876;7.012;2023-05-12T01:54:22;100868.34;;;28.95;74.55
19553;BME280;9420;50.876;7.012;2023-05-12T01:56:49;100864.06;;;31.47;66.63
19553;BME280;9420;50.876;7.012;2023-05-12T01:59:16;100867.16;;;29.49;70.85
19553;BME280;9420;50.876;7.012;2023-05-12T02:01:44;100871.56;;;29.16;71.66
19553;BME280;9420;50.876;7.012;2023-05-12T02:04:11;100869.16;;;29.13;71.93
19553;BME280;9420;50.876;7.012;2023-05-12T02:06:38;100870.13;;;28.25;74.02
19553;BME280;9420;50.876;7.012;2023-05-12T02:09:05;100866.88;;;29.26;71.94
19553;BME280;9420;50.876;7.012;2023-05-12T02:11:32;100870.91;;;29.22;72.12
19553;BME280;9420;50.876;7.012;2023-05-12T02:13:59;100872.72;;;28.88;73.02
19553;BME280;9420;50.876;7.012;2023-05-12T02:16:26;100873.00;;;28.85;72.97
19553;BME280;9420;50.876;7.012;2023-05-12T02:18:54;100863.56;;;29.40;72.18
19553;BME280;9420;50.876;7.012;2023-05-12T02:21:21;100872.50;;;28.64;74.29
19553;BME280;9420;50.876;7.012;2023-05-12T02:23:48;100870.34;;;29.44;71.84
19553;BME280;9420;50.876;7.012;2023-05-12T02:26:15;100870.13;;;28.25;75.44
19553;BME280;9420;50.876;7.012;2023-05-12T02:28:44;100868.66;;;28.92;74.35
19553;BME280;9420;50.876;7.012;2023-05-12T02:31:11;100874.72;;;28.86;72.72
19553;BME280;9420;50.876;7.012;2023-05-12T02:33:38;100870.28;;;28.06;75.59
19553;BME280;9420;50.876;7.012;2023-05-12T02:36:08;100872.75;;;28.35;75.08
19553;BME280;9420;50.876;7.012;2023-05-12T02:38:35;100867.34;;;29.89;73.84
19553;BME280;9420;50.876;7.012;2023-05-12T02:41:02;100859.09;;;30.95;68.28
19553;BME280;9420;50.876;7.012;2023-05-12T02:43:29;100860.75;;;30.16;71.20
19553;BME280;9420;50.876;7.012;2023-05-12T02:45:55;100862.00;;;29.12;73.00
19553;BME280;9420;50.876;7.012;2023-05-12T02:48:23;100858.78;;;29.34;72.56
19553;BME280;9420;50.876;7.012;2023-05-12T02:50:50;100861.75;;;29.57;72.00
19553;BME280;9420;50.876;7.012;2023-05-12T02:53:18;100861.50;;;29.34;73.23
19553;BME280;9420;50.876;7.012;2023-05-12T02:55:45;100865.88;;;29.09;73.56
19553;BME280;9420;50.876;7.012;2023-05-12T02:58:12;100858.09;;;29.32;72.68
19553;BME280;9420;50.876;7.012;2023-05-12T03:00:39;100857.75;;;30.83;70.41
19553;BME280;9420;50.876;7.012;2023-05-12T03:03:06;100854.19;;;31.54;67.18
19553;BME280;9420;50.876;7.012;2023-05-12T03:05:33;100855.75;;;32.09;64.52
19553;BME280;9420;50.876;7.012;2023-05-12T03:08:00;100874.75;;;28.15;74.21
19553;BME280;9420;50.876;7.012;2023-05-12T03:10:29;100857.94;;;31.45;65.01
19553;BME280;9420;50.876;7.012;2023-05-12T03:12:56;100863.84;;;31.01;65.66
19553;BME280;9420;50.876;7.012;2023-05-12T03:15:23;100864.53;;;28.45;72.73
19553;BME280;9420;50.876;7.012;2023-05-12T03:17:50;100859.03;;;29.15;72.21
19553;BME280;9420;50.876;7.012;2023-05-12T03:20:17;100855.00;;;28.76;72.44
19553;BME280;9420;50.876;7.012;2023-05-12T03:22:44;100865.03;;;28.22;72.95
19553;BME280;9420;50.876;7.012;2023-05-12T03:25:11;100857.13;;;28.11;74.87
19553;BME280;9420;50.876;7.012;2023-05-12T03:27:40;100852.91;;;28.70;72.90
19553;BME280;9420;50.876;7.012;2023-05-12T03:30:09;100856.66;;;29.20;71.32
19553;BME280;9420;50.876;7.012;2023-05-12T03:32:36;100851.78;;;29.65;69.87
19553;BME280;9420;50.876;7.012;2023-05-12T03:35:05;100861.22;;;28.94;71.72
19553;BME280;9420;50.876;7.012;2023-05-12T03:37:33;100854.56;;;29.40;70.91
19553;BME280;9420;50.876;7.012;2023-05-12T03:40:03;100853.25;;;29.18;70.84
19553;BME280;9420;50.876;7.012;2023-05-12T03:42:31;100850.00;;;29.40;70.67
19553;BME280;9420;50.876;7.012;2023-05-12T03:44:59;100852.88;;;29.39;71.17
19553;BME280;9420;50.876;7.012;2023-05-12T03:47:26;100851.03;;;29.47;70.67
19553;BME280;9420;50.876;7.012;2023-05-12T03:49:53;100854.91;;;28.85;71.14
19553;BME280;9420;50.876;7.012;2023-05-12T03:52:20;100861.94;;;29.55;69.02
19553;BME280;9420;50.876;7.012;2023-05-12T03:54:47;100847.72;;;29.69;68.87
19553;BME280;9420;50.876;7.012;2023-05-12T03:57:14;100850.19;;;29.89;67.86
19553;BME280;9420;50.876;7.012;2023-05-12T03:59:42;100853.72;;;29.47;68.24
19553;BME280;9420;50.876;7.012;2023-05-12T04:02:11;100857.41;;;29.30;68.50
19553;BME280;9420;50.876;7.012;2023-05-12T04:04:38;100853.56;;;28.89;70.04
19553;BME280;9420;50.876;7.012;2023-05-12T04:07:05;100860.47;;;28.58;72.97
19553;BME280;9420;50.876;7.012;2023-05-12T04:09:32;100866.38;;;27.91;72.35
19553;BME280;9420;50.876;7.012;2023-05-12T04:11:59;100857.53;;;27.89;72.10
19553;BME280;9420;50.876;7.012;2023-05-12T04:14:26;100860.63;;;28.21;71.60
19553;BME280;9420;50.876;7.012;2023-05-12T04:16:53;100863.38;;;27.67;72.59
19553;BME280;9420;50.876;7.012;2023-05-12T04:19:21;100857.38;;;28.36;72.02
19553;BME280;9420;50.876;7.012;2023-05-12T04:21:49;100868.81;;;27.85;72.43
19553;BME280;9420;50.876;7.012;2023-05-12T04:24:16;100880.91;;;27.26;74.22
19553;BME280;9420;50.876;7.012;2023-05-12T04:26:43;100871.47;;;27.40;73.69
19553;BME280;9420;50.876;7.012;2023-05-12T04:29:10;100880.44;;;27.50;73.78
19553;BME280;9420;50.876;7.012;2023-05-12T04:31:38;100881.75;;;26.81;75.73
19553;BME280;9420;50.876;7.012;2023-05-12T04:34:04;100885.16;;;27.38;74.81
19553;BME280;9420;50.876;7.012;2023-05-12T04:36:33;100882.63;;;27.37;74.33
19553;BME280;9420;50.876;7.012;2023-05-12T04:39:00;100891.59;;;27.65;73.38
19553;BME280;9420;50.876;7.012;2023-05-12T04:41:28;100891.28;;;27.31;73.10
19553;BME280;9420;50.876;7.012;2023-05-12T04:43:55;100887.84;;;28.02;72.69
19553;BME280;9420;50.876;7.012;2023-05-12T04:46:22;100896.09;;;28.54;70.56
19553;BME280;9420;50.876;7.012;2023-05-12T04:48:49;100897.28;;;28.69;70.68
19553;BME280;9420;50.876;7.012;2023-05-12T04:51:16;100896.72;;;28.30;70.20
19553;BME280;9420;50.876;7.012;2023-05-12T04:53:44;100895.03;;;28.11;71.03
19553;BME280;9420;50.876;7.012;2023-05-12T04:56:11;100901.84;;;28.51;72.20
19553;BME280;9420;50.876;7.012;2023-05-12T04:58:38;100910.47;;;27.47;74.09
19553;BME280;9420;50.876;7.012;2023-05-12T05:01:05;100914.53;;;28.33;71.22
19553;BME280;9420;50.876;7.012;2023-05-12T05:03:33;100921.50;;;28.53;70.62
19553;BME280;9420;50.876;7.012;2023-05-12T05:06:00;100917.94;;;28.70;69.86
19553;BME280;9420;50.876;7.012;2023-05-12T05:08:27;100926.94;;;28.53;69.85
19553;BME280;9420;50.876;7.012;2023-05-12T05:10:55;100921.91;;;28.40;70.09
19553;BME280;9420;50.876;7.012;2023-05-12T05:13:22;100927.56;;;28.82;69.55
19553;BME280;9420;50.876;7.012;2023-05-12T05:15:50;100925.59;;;28.74;69.42
19553;BME280;9420;50.876;7.012;2023-05-12T05:18:18;100932.47;;;28.61;69.96
19553;BME280;9420;50.876;7.012;2023-05-12T05:20:45;100928.19;;;28.76;69.58
19553;BME280;9420;50.876;7.012;2023-05-12T05:23:12;100932.91;;;28.74;68.68
19553;BME280;9420;50.876;7.012;2023-05-12T05:25:40;100933.84;;;27.75;70.55
19553;BME280;9420;50.876;7.012;2023-05-12T05:28:08;100936.41;;;27.94;69.46
19553;BME280;9420;50.876;7.012;2023-05-12T05:30:35;100946.00;;;28.61;68.38
19553;BME280;9420;50.876;7.012;2023-05-12T05:33:03;100944.88;;;28.36;69.18
19553;BME280;9420;50.876;7.012;2023-05-12T05:35:30;100945.25;;;29.12;68.21
19553;BME280;9420;50.876;7.012;2023-05-12T05:37:57;100947.88;;;29.03;67.80
19553;BME280;9420;50.876;7.012;2023-05-12T05:40:24;100952.16;;;29.57;67.49
19553;BME280;9420;50.876;7.012;2023-05-12T05:42:51;100958.53;;;29.48;67.11
19553;BME280;9420;50.876;7.012;2023-05-12T05:45:20;100952.81;;;29.51;66.80
19553;BME280;9420;50.876;7.012;2023-05-12T05:47:47;100957.09;;;28.93;67.05
19553;BME280;9420;50.876;7.012;2023-05-12T05:50:16;100961.97;;;29.07;67.31
19553;BME280;9420;50.876;7.012;2023-05-12T05:52:43;100966.50;;;28.81;67.46
19553;BME280;9420;50.876;7.012;2023-05-12T05:55:10;100971.81;;;28.38;68.91
19553;BME280;9420;50.876;7.012;2023-05-12T05:57:37;100974.44;;;28.29;69.34
19553;BME280;9420;50.876;7.012;2023-05-12T06:00:07;100978.94;;;28.11;69.20
19553;BME280;9420;50.876;7.012;2023-05-12T06:02:36;100977.22;;;28.55;68.59
19553;BME280;9420;50.876;7.012;2023-05-12T06:05:04;100984.31;;;27.84;69.66
19553;BME280;9420;50.876;7.012;2023-05-12T06:07:31;100992.06;;;27.79;69.44
19553;BME280;9420;50.876;7.012;2023-05-12T06:09:59;100984.03;;;28.42;69.36
19553;BME280;9420;50.876;7.012;2023-05-12T06:12:27;100982.06;;;28.79;69.66
19553;BME280;9420;50.876;7.012;2023-05-12T06:14:54;100990.97;;;28.89;68.73
19553;BME280;9420;50.876;7.012;2023-05-12T06:17:21;100992.44;;;28.66;68.47
19553;BME280;9420;50.876;7.012;2023-05-12T06:19:49;100991.72;;;28.46;68.87
19553;BME280;9420;50.876;7.012;2023-05-12T06:22:16;101002.97;;;28.69;68.23
19553;BME280;9420;50.876;7.012;2023-05-12T06:24:44;100995.16;;;28.39;68.42
19553;BME280;9420;50.876;7.012;2023-05-12T06:27:10;101004.97;;;28.84;68.01
19553;BME280;9420;50.876;7.012;2023-05-12T06:29:37;100999.69;;;28.48;69.35
19553;BME280;9420;50.876;7.012;2023-05-12T06:32:05;101007.47;;;28.78;68.71
19553;BME280;9420;50.876;7.012;2023-05-12T06:34:33;101010.63;;;29.26;67.32
19553;BME280;9420;50.876;7.012;2023-05-12T06:37:02;101009.72;;;29.18;67.58
19553;BME280;9420;50.876;7.012;2023-05-12T06:39:29;101012.53;;;28.46;68.01
19553;BME280;9420;50.876;7.012;2023-05-12T06:41:56;101013.16;;;29.10;67.44
19553;BME280;9420;50.876;7.012;2023-05-12T06:44:23;101011.84;;;29.14;66.44
19553;BME280;9420;50.876;7.012;2023-05-12T06:46:50;101017.16;;;29.41;65.80
19553;BME280;9420;50.876;7.012;2023-05-12T06:49:17;101029.28;;;29.29;66.82
19553;BME280;9420;50.876;7.012;2023-05-12T06:51:44;101021.34;;;29.79;65.94
19553;BME280;9420;50.876;7.012;2023-05-12T06:54:12;101025.13;;;29.68;66.05
19553;BME280;9420;50.876;7.012;2023-05-12T06:56:41;101024.19;;;29.52;65.99
19553;BME280;9420;50.876;7.012;2023-05-12T06:59:08;101032.41;;;30.27;64.88
19553;BME280;9420;50.876;7.012;2023-05-12T07:01:35;101030.13;;;30.07;63.79
19553;BME280;9420;50.876;7.012;2023-05-12T07:04:03;101036.94;;;30.11;65.29
19553;BME280;9420;50.876;7.012;2023-05-12T07:06:30;101040.22;;;30.22;65.23
19553;BME280;9420;50.876;7.012;2023-05-12T07:08:59;101047.66;;;29.78;66.22
19553;BME280;9420;50.876;7.012;2023-05-12T07:11:28;101047.56;;;30.30;65.91
19553;BME280;9420;50.876;7.012;2023-05-12T07:13:55;101041.66;;;30.01;65.48
19553;BME280;9420;50.876;7.012;2023-05-12T07:16:22;101053.22;;;30.11;64.59
19553;BME280;9420;50.876;7.012;2023-05-12T07:18:49;101040.03;;;30.74;64.11
19553;BME280;9420;50.876;7.012;2023-05-12T07:21:16;101052.06;;;29.36;64.69
19553;BME280;9420;50.876;7.012;2023-05-12T07:23:43;101045.56;;;30.40;65.35
19553;BME280;9420;50.876;7.012;2023-05-12T07:26:11;101050.72;;;30.17;65.76
19553;BME280;9420;50.876;7.012;2023-05-12T07:28:39;101053.69;;;30.32;65.13
19553;BME280;9420;50.876;7.012;2023-05-12T07:31:07;101049.44;;;30.79;62.63
19553;BME280;9420;50.876;7.012;2023-05-12T07:33:35;101056.94;;;31.01;61.81
19553;BME280;9420;50.876;7.012;2023-05-12T07:36:03;101051.00;;;31.06;61.70
19553;BME280;9420;50.876;7.012;2023-05-12T07:38:30;101056.25;;;31.72;60.44
19553;BME280;9420;50.876;7.012;2023-05-12T07:40:58;101054.78;;;30.47;62.37
19553;BME280;9420;50.876;7.012;2023-05-12T07:43:25;101061.47;;;30.77;61.84
19553;BME280;9420;50.876;7.012;2023-05-12T07:45:54;101065.59;;;30.89;61.64
19553;BME280;9420;50.876;7.012;2023-05-12T07:48:21;101059.94;;;30.66;61.86
19553;BME280;9420;50.876;7.012;2023-05-12T07:50:48;101062.97;;;30.71;62.38
19553;BME280;9420;50.876;7.012;2023-05-12T07:53:15;101061.28;;;30.70;61.14
19553;BME280;9420;50.876;7.012;2023-05-12T07:55:42;101077.06;;;31.57;59.93
19553;BME280;9420;50.876;7.012;2023-05-12T07:58:09;101073.34;;;30.26;61.61
19553;BME280;9420;50.876;7.012;2023-05-12T08:00:36;101071.69;;;30.83;61.19
19553;BME280;9420;50.876;7.012;2023-05-12T08:03:04;101076.00;;;29.84;60.52
19553;BME280;9420;50.876;7.012;2023-05-12T08:05:32;101069.47;;;30.78;60.97
19553;BME280;9420;50.876;7.012;2023-05-12T08:07:59;101080.06;;;31.13;60.55
19553;BME280;9420;50.876;7.012;2023-05-12T08:10:26;101072.38;;;32.52;58.72
19553;BME280;9420;50.876;7.012;2023-05-12T08:12:55;101080.81;;;32.27;58.65
19553;BME280;9420;50.876;7.012;2023-05-12T08:15:22;101064.81;;;32.62;57.22
19553;BME280;9420;50.876;7.012;2023-05-12T08:17:49;101075.97;;;31.98;57.60
19553;BME280;9420;50.876;7.012;2023-05-12T08:20:18;101076.50;;;33.02;56.02
19553;BME280;9420;50.876;7.012;2023-05-12T08:22:45;101085.97;;;32.05;57.34
19553;BME280;9420;50.876;7.012;2023-05-12T08:25:12;101092.75;;;32.26;56.93
19553;BME280;9420;50.876;7.012;2023-05-12T08:27:39;101083.22;;;32.22;58.22
19553;BME280;9420;50.876;7.012;2023-05-12T08:30:07;101081.44;;;32.75;56.75
19553;BME280;9420;50.876;7.012;2023-05-12T08:32:35;101079.13;;;32.87;55.76
19553;BME280;9420;50.876;7.012;2023-05-12T08:35:02;101079.41;;;33.23;55.23
19553;BME280;9420;50.876;7.012;2023-05-12T08:37:31;101085.09;;;34.10;53.72
19553;BME280;9420;50.876;7.012;2023-05-12T08:39:59;101090.19;;;34.13;54.38
19553;BME280;9420;50.876;7.012;2023-05-12T08:42:35;101080.66;;;33.95;52.94
19553;BME280;9420;50.876;7.012;2023-05-12T08:45:07;101083.44;;;34.74;53.12
19553;BME280;9420;50.876;7.012;2023-05-12T08:47:37;101090.94;;;34.36;53.34
19553;BME280;9420;50.876;7.012;2023-05-12T08:50:05;101095.22;;;33.87;53.41
19553;BME280;9420;50.876;7.012;2023-05-12T08:52:36;101104.31;;;32.28;54.47
19553;BME280;9420;50.876;7.012;2023-05-12T08:55:04;101105.13;;;32.28;54.27
19553;BME280;9420;50.876;7.012;2023-05-12T08:57:32;101100.84;;;33.34;52.89
19553;BME280;9420;50.876;7.012;2023-05-12T09:00:02;101103.41;;;33.73;53.24
19553;BME280;9420;50.876;7.012;2023-05-12T09:02:30;101100.03;;;33.85;52.02
19553;BME280;9420;50.876;7.012;2023-05-12T09:04:58;101096.91;;;33.36;52.47
19553;BME280;9420;50.876;7.012;2023-05-12T09:07:25;101098.84;;;33.50;53.56
19553;BME280;9420;50.876;7.012;2023-05-12T09:09:59;101106.97;;;34.10;53.14
19553;BME280;9420;50.876;7.012;2023-05-12T09:12:33;101099.69;;;34.97;50.71
19553;BME280;9420;50.876;7.012;2023-05-12T09:15:05;101088.78;;;36.22;49.94
19553;BME280;9420;50.876;7.012;2023-05-12T09:17:34;101094.50;;;34.66;49.91
19553;BME280;9420;50.876;7.012;2023-05-12T09:20:02;101099.41;;;35.49;49.93
19553;BME280;9420;50.876;7.012;2023-05-12T09:22:31;101103.75;;;34.51;49.52
19553;BME280;9420;50.876;7.012;2023-05-12T09:24:59;101103.09;;;33.53;50.74
19553;BME280;9420;50.876;7.012;2023-05-12T09:27:28;101106.00;;;33.89;50.25
19553;BME280;9420;50.876;7.012;2023-05-12T09:29:55;101102.09;;;35.21;48.13
19553;BME280;9420;50.876;7.012;2023-05-12T09:32:33;101111.78;;;35.45;47.62
19553;BME280;9420;50.876;7.012;2023-05-12T09:35:02;101104.94;;;35.55;49.38
19553;BME280;9420;50.876;7.012;2023-05-12T09:37:33;101112.63;;;35.66;48.50
19553;BME280;9420;50.876;7.012;2023-05-12T09:40:03;101107.66;;;35.76;47.99
19553;BME280;9420;50.876;7.012;2023-05-12T09:42:33;101107.50;;;35.57;47.65
19553;BME280;9420;50.876;7.012;2023-05-12T09:45:02;101117.06;;;35.46;47.35
19553;BME280;9420;50.876;7.012;2023-05-12T09:47:34;101113.88;;;35.64;49.03
19553;BME280;9420;50.876;7.012;2023-05-12T09:50:07;101110.09;;;35.65;47.60
19553;BME280;9420;50.876;7.012;2023-05-12T09:52:37;101108.97;;;35.38;46.39
19553;BME280;9420;50.876;7.012;2023-05-12T09:55:09;101118.03;;;35.17;47.65
19553;BME280;9420;50.876;7.012;2023-05-12T09:57:39;101105.84;;;35.62;46.65
19553;BME280;9420;50.876;7.012;2023-05-12T10:00:09;101102.59;;;35.31;48.24
19553;BME280;9420;50.876;7.012;2023-05-12T10:02:40;101107.31;;;35.86;46.83
19553;BME280;9420;50.876;7.012;2023-05-12T10:05:13;101110.53;;;35.26;45.59
19553;BME280;9420;50.876;7.012;2023-05-12T10:07:43;101106.38;;;36.41;45.87
19553;BME280;9420;50.876;7.012;2023-05-12T10:10:17;101098.72;;;37.64;43.97
19553;BME280;9420;50.876;7.012;2023-05-12T10:12:45;101096.75;;;37.18;43.79
19553;BME280;9420;50.876;7.012;2023-05-12T10:15:13;101096.63;;;37.53;44.34
19553;BME280;9420;50.876;7.012;2023-05-12T10:17:41;101101.28;;;37.85;44.52
19553;BME280;9420;50.876;7.012;2023-05-12T10:20:11;101094.72;;;37.66;41.91
19553;BME280;9420;50.876;7.012;2023-05-12T10:22:39;101094.81;;;38.43;42.34
19553;BME280;9420;50.876;7.012;2023-05-12T10:25:07;101096.97;;;37.17;42.44
19553;BME280;9420;50.876;7.012;2023-05-12T10:27:36;101095.31;;;37.16;43.91
19553;BME280;9420;50.876;7.012;2023-05-12T10:30:06;101093.66;;;37.93;43.29
19553;BME280;9420;50.876;7.012;2023-05-12T10:32:33;101099.03;;;39.28;41.45
19553;BME280;9420;50.876;7.012;2023-05-12T10:35:08;101086.34;;;39.76;39.02
19553;BME280;9420;50.876;7.012;2023-05-12T10:37:35;101080.44;;;39.97;38.32
19553;BME280;9420;50.876;7.012;2023-05-12T10:40:05;101087.03;;;40.14;38.58
19553;BME280;9420;50.876;7.012;2023-05-12T10:42:40;101091.34;;;39.86;38.41
19553;BME280;9420;50.876;7.012;2023-05-12T10:45:15;101090.59;;;39.23;37.37
19553;BME280;9420;50.876;7.012;2023-05-12T10:47:44;101095.97;;;39.42;38.93
19553;BME280;9420;50.876;7.012;2023-05-12T10:50:12;101084.44;;;40.37;38.18
19553;BME280;9420;50.876;7.012;2023-05-12T10:52:39;101078.41;;;39.37;38.34
19553;BME280;9420;50.876;7.012;2023-05-12T10:55:11;101076.72;;;40.28;35.65
19553;BME280;9420;50.876;7.012;2023-05-12T10:57:49;101076.69;;;39.67;35.88
19553;BME280;9420;50.876;7.012;2023-05-12T11:00:23;101079.13;;;39.26;37.89
19553;BME280;9420;50.876;7.012;2023-05-12T11:02:52;101077.56;;;38.67;35.52
19553;BME280;9420;50.876;7.012;2023-05-12T11:05:19;101080.44;;;38.41;38.40
19553;BME280;9420;50.876;7.012;2023-05-12T11:07:48;101086.06;;;37.50;40.69
19553;BME280;9420;50.876;7.012;2023-05-12T11:10:15;101096.41;;;37.48;40.67
19553;BME280;9420;50.876;7.012;2023-05-12T11:12:43;101095.28;;;36.55;39.05
19553;BME280;9420;50.876;7.012;2023-05-12T11:15:14;101085.13;;;37.16;44.78
19553;BME280;9420;50.876;7.012;2023-05-12T11:17:41;101106.38;;;36.41;41.15
19553;BME280;9420;50.876;7.012;2023-05-12T11:20:09;101103.91;;;36.12;42.11
19553;BME280;9420;50.876;7.012;2023-05-12T11:22:39;101115.94;;;34.84;44.48
19553;BME280;9420;50.876;7.012;2023-05-12T11:25:11;101119.56;;;34.70;44.47
19553;BME280;9420;50.876;7.012;2023-05-12T11:27:38;101111.34;;;33.97;46.15
19553;BME280;9420;50.876;7.012;2023-05-12T11:30:13;101120.56;;;34.33;45.14
19553;BME280;9420;50.876;7.012;2023-05-12T11:32:40;101101.31;;;34.56;44.16
19553;BME280;9420;50.876;7.012;2023-05-12T11:35:10;101111.72;;;35.38;43.74
19553;BME280;9420;50.876;7.012;2023-05-12T11:37:38;101106.22;;;36.08;44.68
19553;BME280;9420;50.876;7.012;2023-05-12T11:40:18;101109.41;;;36.46;44.27
19553;BME280;9420;50.876;7.012;2023-05-12T11:42:47;101100.38;;;38.10;41.72
19553;BME280;9420;50.876;7.012;2023-05-12T11:45:26;101102.97;;;37.66;39.63
19553;BME280;9420;50.876;7.012;2023-05-12T11:48:05;101104.66;;;37.87;39.90
19553;BME280;9420;50.876;7.012;2023-05-12T11:50:36;101104.28;;;38.60;37.94
19553;BME280;9420;50.876;7.012;2023-05-12T11:53:03;101099.13;;;37.48;40.05
19553;BME280;9420;50.876;7.012;2023-05-12T11:55:30;101098.13;;;39.03;37.17
19553;BME280;9420;50.876;7.012;2023-05-12T11:58:00;101097.59;;;39.25;37.32
19553;BME280;9420;50.876;7.012;2023-05-12T12:00:33;101095.88;;;38.42;37.38
19553;BME280;9420;50.876;7.012;2023-05-12T12:03:11;101101.44;;;39.98;38.20
19553;BME280;9420;50.876;7.012;2023-05-12T12:05:40;101097.13;;;39.53;36.53
19553;BME280;9420;50.876;7.012;2023-05-12T12:08:10;101099.97;;;38.00;37.13
19553;BME280;9420;50.876;7.012;2023-05-12T12:10:38;101100.41;;;37.65;39.02
19553;BME280;9420;50.876;7.012;2023-05-12T12:13:08;101106.13;;;37.50;39.57
19553;BME280;9420;50.876;7.012;2023-05-12T12:15:41;101094.91;;;37.71;38.91
19553;BME280;9420;50.876;7.012;2023-05-12T12:18:08;101103.34;;;38.09;38.52
19553;BME280;9420;50.876;7.012;2023-05-12T12:20:35;101104.66;;;37.87;39.54
19553;BME280;9420;50.876;7.012;2023-05-12T12:23:03;101100.66;;;37.89;37.29
19553;BME280;9420;50.876;7.012;2023-05-12T12:25:30;101098.41;;;38.44;37.62
19553;BME280;9420;50.876;7.012;2023-05-12T12:27:57;101115.69;;;36.40;36.51
19553;BME280;9420;50.876;7.012;2023-05-12T12:30:24;101111.84;;;37.49;38.01
19553;BME280;9420;50.876;7.012;2023-05-12T12:32:52;101108.38;;;37.01;37.90
19553;BME280;9420;50.876;7.012;2023-05-12T12:35:19;101123.41;;;36.64;39.46
19553;BME280;9420;50.876;7.012;2023-05-12T12:37:46;101119.81;;;37.24;38.99
19553;BME280;9420;50.876;7.012;2023-05-12T12:40:17;101110.06;;;37.15;38.64
19553;BME280;9420;50.876;7.012;2023-05-12T12:42:45;101107.94;;;38.41;37.09
19553;BME280;9420;50.876;7.012;2023-05-12T12:45:12;101118.97;;;37.23;37.48
19553;BME280;9420;50.876;7.012;2023-05-12T12:47:39;101106.34;;;37.62;35.88
19553;BME280;9420;50.876;7.012;2023-05-12T12:50:09;101110.50;;;37.18;38.91
19553;BME280;9420;50.876;7.012;2023-05-12T12:52:37;101108.28;;;37.81;38.27
19553;BME280;9420;50.876;7.012;2023-05-12T12:55:05;101111.59;;;38.09;38.30
19553;BME280;9420;50.876;7.012;2023-05-12T12:57:32;101110.13;;;37.48;36.33
19553;BME280;9420;50.876;7.012;2023-05-12T13:00:00;101113.97;;;39.14;36.12
19553;BME280;9420;50.876;7.012;2023-05-12T13:02:27;101106.72;;;40.42;33.82
19553;BME280;9420;50.876;7.012;2023-05-12T13:04:54;101111.28;;;38.56;36.56